createdAt,value
2023-11-30T00:02:12.061Z,100061.00
2023-11-30T00:04:44.303Z,100035.22
2023-11-30T00:07:16.426Z,100066.25
2023-11-30T00:09:48.549Z,100067.16
2023-11-30T00:12:20.615Z,100065.28
2023-11-30T00:14:52.854Z,100026.34
2023-11-30T00:17:24.922Z,100027.31
2023-11-30T00:19:56.953Z,100057.50
2023-11-30T00:22:28.962Z,100051.47
2023-11-30T00:25:01.066Z,100040.16
2023-11-30T00:27:33.132Z,100050.69
2023-11-30T00:30:07.747Z,100045.59
2023-11-30T00:32:40.042Z,100039.50
2023-11-30T00:35:12.284Z,100043.00
2023-11-30T00:37:44.462Z,100030.91
2023-11-30T00:40:16.597Z,100035.25
2023-11-30T00:42:48.732Z,100034.53
2023-11-30T00:45:20.960Z,100005.16
2023-11-30T00:47:53.055Z,100026.66
2023-11-30T00:50:25.512Z,100030.22
2023-11-30T00:52:57.758Z,99988.78
2023-11-30T00:55:29.973Z,100018.06
2023-11-30T00:58:02.088Z,99998.50
2023-11-30T01:00:34.125Z,100012.81
2023-11-30T01:03:06.361Z,100016.44
2023-11-30T01:05:38.895Z,100008.66
2023-11-30T01:08:13.812Z,100001.84
2023-11-30T01:10:45.862Z,99997.47
2023-11-30T01:13:17.921Z,100001.00
2023-11-30T01:15:49.941Z,100002.81
2023-11-30T01:18:22.108Z,100006.28
2023-11-30T01:20:54.276Z,100008.00
2023-11-30T01:23:26.325Z,100005.25
2023-11-30T01:25:58.509Z,100008.81
2023-11-30T01:28:30.682Z,100006.81
2023-11-30T01:31:03.189Z,100013.03
2023-11-30T01:33:37.849Z,100000.81
2023-11-30T01:36:10.732Z,99995.69
2023-11-30T01:38:42.825Z,99990.34
2023-11-30T01:41:14.943Z,99971.59
2023-11-30T01:43:47.047Z,99989.69
2023-11-30T01:46:20.353Z,99968.03
2023-11-30T01:48:52.532Z,100002.56
2023-11-30T01:51:26.699Z,100000.81
2023-11-30T01:54:01.232Z,99987.50
2023-11-30T01:56:38.086Z,99995.44
2023-11-30T01:59:13.087Z,99989.38
2023-11-30T02:01:46.451Z,99973.50
2023-11-30T02:04:18.877Z,99969.81
2023-11-30T02:06:51.028Z,99984.13
2023-11-30T02:09:23.233Z,99958.97
2023-11-30T02:11:55.395Z,99943.41
2023-11-30T02:14:27.445Z,99981.59
2023-11-30T02:16:59.582Z,99981.59
2023-11-30T02:19:31.685Z,99979.06
2023-11-30T02:22:03.937Z,99955.72
2023-11-30T02:24:36.072Z,99963.63
2023-11-30T02:27:08.302Z,99989.16
2023-11-30T02:29:40.456Z,99975.19
2023-11-30T02:32:13.535Z,99973.44
2023-11-30T02:34:45.818Z,99980.47
2023-11-30T02:37:18.112Z,99963.63
2023-11-30T02:39:50.482Z,99979.38
2023-11-30T02:42:22.597Z,99977.59
2023-11-30T02:44:54.965Z,99980.09
2023-11-30T02:47:27.139Z,99980.03
2023-11-30T02:49:59.160Z,99971.59
2023-11-30T02:52:31.614Z,99968.53
2023-11-30T02:55:04.039Z,99972.97
2023-11-30T02:57:37.060Z,99975.66
2023-11-30T03:00:10.417Z,99945.25
2023-11-30T03:02:42.531Z,99966.94
2023-11-30T03:05:14.635Z,99966.03
2023-11-30T03:07:46.968Z,99957.97
2023-11-30T03:10:22.949Z,99972.81
2023-11-30T03:12:56.172Z,99967.59
2023-11-30T03:15:31.668Z,99975.38
2023-11-30T03:18:04.307Z,99968.38
2023-11-30T03:20:37.831Z,99966.84
2023-11-30T03:23:10.068Z,99938.28
2023-11-30T03:25:42.408Z,99966.75
2023-11-30T03:28:14.888Z,99942.00
2023-11-30T03:30:46.908Z,99963.94
2023-11-30T03:33:19.031Z,99971.22
2023-11-30T03:35:52.799Z,99970.31
2023-11-30T03:38:25.102Z,99968.69
2023-11-30T03:40:57.183Z,99964.25
2023-11-30T03:43:29.171Z,99937.72
2023-11-30T03:46:01.170Z,99952.03
2023-11-30T03:48:33.273Z,99922.44
2023-11-30T03:51:05.703Z,99925.13
2023-11-30T03:53:38.753Z,99958.00
2023-11-30T03:56:11.092Z,99943.34
2023-11-30T03:58:43.124Z,99938.16
2023-11-30T04:01:24.115Z,99944.25
2023-11-30T04:03:56.290Z,99941.66
2023-11-30T04:06:28.594Z,99947.78
2023-11-30T04:09:00.788Z,99951.19
2023-11-30T04:11:32.817Z,99944.25
2023-11-30T04:14:07.346Z,99942.44
2023-11-30T04:16:39.442Z,99940.66
2023-11-30T04:19:11.720Z,99943.25
2023-11-30T04:21:43.718Z,99933.56
2023-11-30T04:24:17.310Z,99935.41
2023-11-30T04:26:49.407Z,99937.13
2023-11-30T04:29:21.723Z,99939.63
2023-11-30T04:31:53.872Z,99930.91
2023-11-30T04:34:25.965Z,99939.56
2023-11-30T04:36:58.002Z,99940.38
2023-11-30T04:39:30.203Z,99943.78
2023-11-30T04:42:02.346Z,99950.69
2023-11-30T04:44:34.698Z,99948.94
2023-11-30T04:47:07.950Z,99948.94
2023-11-30T04:49:40.012Z,99955.78
2023-11-30T04:52:12.083Z,99955.94
2023-11-30T04:54:44.182Z,99947.19
2023-11-30T04:57:16.269Z,99943.13
2023-11-30T04:59:48.326Z,99950.91
2023-11-30T05:02:21.108Z,99943.13
2023-11-30T05:04:53.266Z,99943.19
2023-11-30T05:07:25.427Z,99908.53
2023-11-30T05:09:57.498Z,99950.00
2023-11-30T05:12:29.660Z,99943.19
2023-11-30T05:15:01.672Z,99948.28
2023-11-30T05:17:34.309Z,99905.09
2023-11-30T05:20:07.520Z,99926.31
2023-11-30T05:22:39.523Z,99933.72
2023-11-30T05:25:11.580Z,99935.47
2023-11-30T05:27:43.605Z,99937.94
2023-11-30T05:30:15.841Z,99901.56
2023-11-30T05:32:48.136Z,99926.44
2023-11-30T05:35:20.421Z,99919.34
2023-11-30T05:37:52.548Z,99890.13
2023-11-30T05:40:26.028Z,99884.06
2023-11-30T05:42:58.055Z,99922.06
2023-11-30T05:45:30.234Z,99919.47
2023-11-30T05:48:02.350Z,99919.19
2023-11-30T05:50:36.429Z,99926.13
2023-11-30T05:53:08.519Z,99918.53
2023-11-30T05:55:40.556Z,99921.25
2023-11-30T05:58:12.728Z,99912.66
2023-11-30T06:00:44.904Z,99892.06
2023-11-30T06:03:17.097Z,99920.66
2023-11-30T06:05:49.214Z,99928.53
2023-11-30T06:08:21.185Z,99884.34
2023-11-30T06:10:53.267Z,99892.38
2023-11-30T06:13:27.873Z,99918.31
2023-11-30T06:15:59.925Z,99889.81
2023-11-30T06:18:32.317Z,99893.25
2023-11-30T06:21:09.394Z,99925.25
2023-11-30T06:23:41.406Z,99932.22
2023-11-30T06:26:13.557Z,99934.06
2023-11-30T06:28:45.628Z,99935.81
2023-11-30T06:31:18.283Z,99934.00
2023-11-30T06:33:51.500Z,99929.78
2023-11-30T06:36:25.282Z,99933.13
2023-11-30T06:38:58.007Z,99908.97
2023-11-30T06:41:30.368Z,99916.13
2023-11-30T06:44:02.448Z,99946.31
2023-11-30T06:46:34.723Z,99935.94
2023-11-30T06:49:06.767Z,99943.78
2023-11-30T06:51:39.197Z,99927.63
2023-11-30T06:54:11.437Z,99948.06
2023-11-30T06:56:43.466Z,99952.41
2023-11-30T06:59:15.482Z,99949.84
2023-11-30T07:01:47.908Z,99949.06
2023-11-30T07:04:20.133Z,99946.31
2023-11-30T07:06:52.189Z,99952.47
2023-11-30T07:09:24.260Z,99948.03
2023-11-30T07:11:56.331Z,99952.41
2023-11-30T07:14:28.349Z,99913.53
2023-11-30T07:17:00.442Z,99948.16
2023-11-30T07:19:32.503Z,99949.84
2023-11-30T07:22:04.597Z,99948.91
2023-11-30T07:24:36.607Z,99950.47
2023-11-30T07:27:09.911Z,99944.53
2023-11-30T07:29:41.908Z,99948.78
2023-11-30T07:32:19.681Z,99913.41
2023-11-30T07:34:51.768Z,99924.81
2023-11-30T07:37:23.827Z,99945.94
2023-11-30T07:39:55.833Z,99947.34
2023-11-30T07:42:32.993Z,99950.00
2023-11-30T07:45:10.554Z,99936.34
2023-11-30T07:47:42.833Z,99966.53
2023-11-30T07:50:17.399Z,99963.06
2023-11-30T07:52:49.553Z,99961.25
2023-11-30T07:55:21.911Z,99971.63
2023-11-30T07:57:53.997Z,99966.31
2023-11-30T08:00:26.143Z,99964.59
2023-11-30T08:02:58.313Z,99953.94
2023-11-30T08:05:30.412Z,99942.44
2023-11-30T08:08:02.457Z,99959.66
2023-11-30T08:10:35.761Z,99942.06
2023-11-30T08:13:08.526Z,99925.56
2023-11-30T08:15:40.635Z,99971.59
2023-11-30T08:18:15.366Z,99958.78
2023-11-30T08:20:47.497Z,99963.97
2023-11-30T08:23:21.155Z,99956.47
2023-11-30T08:25:53.370Z,99966.19
2023-11-30T08:28:25.984Z,99951.34
2023-11-30T08:30:58.191Z,99961.13
2023-11-30T08:33:30.266Z,99961.13
2023-11-30T08:36:03.990Z,99940.53
2023-11-30T08:38:39.154Z,99968.41
2023-11-30T08:41:11.379Z,99964.97
2023-11-30T08:43:43.406Z,99971.28
2023-11-30T08:46:15.574Z,99977.28
2023-11-30T08:48:47.853Z,99977.41
2023-11-30T08:51:20.100Z,99965.44
2023-11-30T08:53:52.433Z,99965.69
2023-11-30T08:56:24.474Z,99964.91
2023-11-30T08:58:56.548Z,99960.66
2023-11-30T09:01:28.698Z,99931.31
2023-11-30T09:04:07.250Z,99933.00
2023-11-30T09:06:39.479Z,99966.59
2023-11-30T09:09:11.587Z,99963.25
2023-11-30T09:11:46.597Z,99959.84
2023-11-30T09:14:19.047Z,99964.38
2023-11-30T09:16:51.358Z,99960.13
2023-11-30T09:19:23.477Z,99933.53
2023-11-30T09:21:55.676Z,99935.31
2023-11-30T09:24:27.884Z,99936.41
2023-11-30T09:26:59.945Z,99957.28
2023-11-30T09:29:32.090Z,99961.03
2023-11-30T09:32:04.554Z,99925.91
2023-11-30T09:34:36.581Z,99961.06
2023-11-30T09:37:08.648Z,99959.66
2023-11-30T09:39:42.352Z,99959.53
2023-11-30T09:42:17.544Z,99944.94
2023-11-30T09:44:49.600Z,99943.78
2023-11-30T09:47:22.568Z,99945.47
2023-11-30T09:49:55.094Z,99950.75
2023-11-30T09:52:27.513Z,99948.97
2023-11-30T09:55:00.713Z,99952.06
2023-11-30T09:57:33.006Z,99952.56
2023-11-30T10:00:11.389Z,99970.19
2023-11-30T10:03:00.496Z,99967.63
2023-11-30T10:05:32.663Z,99968.09
2023-11-30T10:08:05.014Z,99962.50
2023-11-30T10:10:37.380Z,99935.28
2023-11-30T10:13:10.546Z,99959.28
2023-11-30T10:15:42.870Z,99960.59
2023-11-30T10:18:15.126Z,99960.31
2023-11-30T10:20:47.929Z,99958.41
2023-11-30T10:23:19.955Z,99962.47
2023-11-30T10:25:54.176Z,99953.88
2023-11-30T10:28:26.340Z,99927.41
2023-11-30T10:31:04.157Z,99923.47
2023-11-30T10:33:39.028Z,99943.22
2023-11-30T10:36:13.077Z,99953.13
2023-11-30T10:38:52.384Z,99943.13
2023-11-30T10:41:37.887Z,99932.41
2023-11-30T10:44:14.453Z,99948.34
2023-11-30T10:46:51.010Z,99946.03
2023-11-30T10:49:25.373Z,99944.53
2023-11-30T10:52:03.382Z,99920.88
2023-11-30T10:54:58.218Z,99952.69
2023-11-30T10:57:30.831Z,99962.31
2023-11-30T11:00:03.731Z,99951.72
2023-11-30T11:02:42.814Z,99944.31
2023-11-30T11:05:19.854Z,99934.84
2023-11-30T11:07:53.617Z,99952.38
2023-11-30T11:10:36.170Z,99912.91
2023-11-30T11:13:08.389Z,99917.56
2023-11-30T11:15:41.740Z,99947.31
2023-11-30T11:18:17.257Z,99947.69
2023-11-30T11:20:49.341Z,99947.31
2023-11-30T11:23:21.452Z,99945.03
2023-11-30T11:26:00.051Z,99945.66
2023-11-30T11:28:32.835Z,99947.63
2023-11-30T11:31:05.980Z,99942.84
2023-11-30T11:33:42.848Z,99912.97
2023-11-30T11:36:15.494Z,99941.44
2023-11-30T11:38:47.527Z,99946.69
2023-11-30T11:41:20.013Z,99907.13
2023-11-30T11:43:52.010Z,99941.16
2023-11-30T11:46:24.366Z,99906.69
2023-11-30T11:48:56.842Z,99928.78
2023-11-30T11:51:29.470Z,99895.19
2023-11-30T11:54:01.514Z,99923.03
2023-11-30T11:56:33.654Z,99900.50
2023-11-30T11:59:05.658Z,99911.41
2023-11-30T12:01:40.843Z,99917.16
2023-11-30T12:04:13.023Z,99920.09
2023-11-30T12:06:45.545Z,99893.19
2023-11-30T12:09:17.752Z,99880.66
2023-11-30T12:11:49.814Z,99913.41
2023-11-30T12:14:22.188Z,99888.84
2023-11-30T12:16:54.344Z,99906.78
2023-11-30T12:19:26.376Z,99913.91
2023-11-30T12:21:59.419Z,99908.91
2023-11-30T12:24:31.447Z,99909.28
2023-11-30T12:27:03.667Z,99924.66
2023-11-30T12:29:36.479Z,99917.34
2023-11-30T12:32:08.616Z,99922.25
2023-11-30T12:34:40.678Z,99896.94
2023-11-30T12:37:12.866Z,99917.91
2023-11-30T12:39:44.904Z,99923.69
2023-11-30T12:42:17.893Z,99920.78
2023-11-30T12:44:49.944Z,99920.47
2023-11-30T12:47:22.772Z,99932.38
2023-11-30T12:49:54.956Z,99918.34
2023-11-30T12:52:28.282Z,99913.03
2023-11-30T12:55:00.777Z,99912.28
2023-11-30T12:57:36.200Z,99884.59
2023-11-30T13:00:15.977Z,99918.94
2023-11-30T13:02:49.823Z,99889.66
2023-11-30T13:05:22.272Z,99888.69
2023-11-30T13:07:56.420Z,99924.75
2023-11-30T13:10:29.064Z,99918.34
2023-11-30T13:13:01.605Z,99919.84
2023-11-30T13:15:33.771Z,99932.72
2023-11-30T13:18:05.966Z,99895.66
2023-11-30T13:20:38.191Z,99927.53
2023-11-30T13:23:10.232Z,99924.03
2023-11-30T13:25:43.581Z,99922.28
2023-11-30T13:28:15.767Z,99927.31
2023-11-30T13:30:48.083Z,99937.84
2023-11-30T13:33:20.371Z,99940.38
2023-11-30T13:35:53.159Z,99939.44
2023-11-30T13:38:25.422Z,99938.66
2023-11-30T13:40:57.458Z,99954.19
2023-11-30T13:43:29.569Z,99946.16
2023-11-30T13:46:01.668Z,99952.22
2023-11-30T13:48:33.779Z,99955.53
2023-11-30T13:51:06.444Z,99941.50
2023-11-30T13:53:39.830Z,99940.59
2023-11-30T13:56:12.341Z,99947.66
2023-11-30T13:58:44.819Z,99942.56
2023-11-30T14:01:18.336Z,99947.84
2023-11-30T14:03:52.357Z,99942.63
2023-11-30T14:06:24.506Z,99945.25
2023-11-30T14:08:56.615Z,99950.44
2023-11-30T14:11:28.657Z,99948.94
2023-11-30T14:14:00.742Z,99943.84
2023-11-30T14:16:33.466Z,99940.44
2023-11-30T14:19:05.836Z,99944.75
2023-11-30T14:21:38.132Z,99952.78
2023-11-30T14:24:11.493Z,99963.31
2023-11-30T14:26:43.615Z,99957.28
2023-11-30T14:29:15.870Z,99954.69
2023-11-30T14:31:48.716Z,99953.06
2023-11-30T14:34:21.297Z,99915.94
2023-11-30T14:36:53.821Z,99949.56
2023-11-30T14:39:29.253Z,99925.28
2023-11-30T14:42:01.404Z,99951.75
2023-11-30T14:44:33.445Z,99952.66
2023-11-30T14:47:11.661Z,99951.06
2023-11-30T14:49:43.704Z,99936.75
2023-11-30T14:52:17.219Z,99957.00
2023-11-30T14:54:53.601Z,99945.75
2023-11-30T14:57:25.706Z,99944.75
2023-11-30T15:00:01.581Z,99942.03
2023-11-30T15:02:34.183Z,99946.44
2023-11-30T15:05:10.234Z,99951.69
2023-11-30T15:07:42.975Z,99951.66
2023-11-30T15:10:15.527Z,99949.09
2023-11-30T15:12:49.295Z,99943.88
2023-11-30T15:15:21.447Z,99926.06
2023-11-30T15:17:53.948Z,99951.81
2023-11-30T15:20:26.332Z,99862.09
2023-11-30T15:22:58.429Z,99954.38
2023-11-30T15:25:30.459Z,99962.19
2023-11-30T15:28:02.617Z,99964.72
2023-11-30T15:30:35.326Z,99962.88
2023-11-30T15:33:09.616Z,99964.66
2023-11-30T15:35:41.845Z,99935.78
2023-11-30T15:38:13.987Z,99964.09
2023-11-30T15:40:46.001Z,99954.72
2023-11-30T15:43:18.557Z,99975.00
2023-11-30T15:45:50.656Z,99969.50
2023-11-30T15:48:22.963Z,99968.78
2023-11-30T15:50:55.128Z,99966.19
2023-11-30T15:53:27.182Z,99970.34
2023-11-30T15:55:59.860Z,99954.22
2023-11-30T15:58:32.052Z,99966.53
2023-11-30T16:01:04.863Z,99962.84
2023-11-30T16:03:37.033Z,99978.84
2023-11-30T16:06:12.625Z,99943.31
2023-11-30T16:08:44.653Z,99942.34
2023-11-30T16:11:17.234Z,99969.94
2023-11-30T16:13:49.645Z,99973.25
2023-11-30T16:16:21.761Z,99970.72
2023-11-30T16:18:54.048Z,99969.94
2023-11-30T16:21:28.610Z,99972.75
2023-11-30T16:24:00.869Z,99972.56
2023-11-30T16:26:34.743Z,99965.63
2023-11-30T16:29:07.137Z,99977.06
2023-11-30T16:31:39.440Z,99972.63
2023-11-30T16:34:11.482Z,99980.47
2023-11-30T16:36:45.312Z,99955.47
2023-11-30T16:39:17.473Z,99987.47
2023-11-30T16:41:49.631Z,99984.88
2023-11-30T16:44:21.736Z,99984.88
2023-11-30T16:46:53.949Z,99983.03
2023-11-30T16:49:26.137Z,99993.59
2023-11-30T16:51:59.951Z,99989.25
2023-11-30T16:54:33.550Z,99987.47
2023-11-30T16:57:05.839Z,99964.94
2023-11-30T16:59:38.685Z,99994.16
2023-11-30T17:02:10.738Z,100001.06
2023-11-30T17:04:44.345Z,100001.06
2023-11-30T17:07:16.729Z,99998.47
2023-11-30T17:09:49.805Z,99997.66
2023-11-30T17:12:22.932Z,99999.44
2023-11-30T17:14:55.112Z,99994.34
2023-11-30T17:17:27.139Z,99997.78
2023-11-30T17:19:59.618Z,99995.16
2023-11-30T17:22:31.793Z,99963.88
2023-11-30T17:25:05.445Z,99968.25
2023-11-30T17:27:37.866Z,99998.34
2023-11-30T17:30:10.314Z,99994.81
2023-11-30T17:32:42.788Z,99964.47
2023-11-30T17:35:15.540Z,99958.03
2023-11-30T17:37:47.676Z,100008.19
2023-11-30T17:40:20.110Z,99943.56
2023-11-30T17:42:52.198Z,100006.16
2023-11-30T17:45:24.595Z,100019.25
2023-11-30T17:47:57.125Z,100017.44
2023-11-30T17:50:29.237Z,100011.44
2023-11-30T17:53:04.347Z,100015.53
2023-11-30T17:55:37.975Z,100022.53
2023-11-30T17:58:10.002Z,100018.97
2023-11-30T18:00:42.054Z,99987.09
2023-11-30T18:03:14.323Z,100025.19
2023-11-30T18:05:46.542Z,100002.97
2023-11-30T18:08:18.600Z,100015.66
2023-11-30T18:10:51.104Z,100019.97
2023-11-30T18:13:23.468Z,100022.41
2023-11-30T18:15:56.297Z,99993.94
2023-11-30T18:18:28.763Z,100025.69
2023-11-30T18:21:00.861Z,100033.28
2023-11-30T18:23:33.023Z,100028.97
2023-11-30T18:26:05.337Z,100028.16
2023-11-30T18:28:37.684Z,100033.41
2023-11-30T18:31:16.830Z,100030.91
2023-11-30T18:33:54.319Z,100027.63
2023-11-30T18:36:27.363Z,100031.03
2023-11-30T18:38:59.452Z,100035.28
2023-11-30T18:41:31.502Z,100035.22
2023-11-30T18:44:05.077Z,100034.31
2023-11-30T18:46:37.858Z,100032.41
2023-11-30T18:49:09.962Z,100034.31
2023-11-30T18:51:42.124Z,100036.22
2023-11-30T18:54:14.242Z,100032.69
2023-11-30T18:56:46.606Z,100032.56
2023-11-30T18:59:18.700Z,100034.31
2023-11-30T19:01:50.973Z,100036.91
2023-11-30T19:04:23.176Z,100009.28
2023-11-30T19:06:55.391Z,100033.25
2023-11-30T19:09:27.568Z,100039.41
2023-11-30T19:11:59.816Z,100036.75
2023-11-30T19:14:31.918Z,100021.47
2023-11-30T19:17:04.362Z,100044.59
2023-11-30T19:19:36.442Z,100047.06
2023-11-30T19:22:08.598Z,100047.06
2023-11-30T19:24:41.135Z,100042.81
2023-11-30T19:27:13.333Z,100052.28
2023-11-30T19:29:45.537Z,100020.19
2023-11-30T19:32:17.765Z,100051.25
2023-11-30T19:34:49.832Z,100052.94
2023-11-30T19:37:21.861Z,100060.63
2023-11-30T19:39:54.010Z,100056.25
2023-11-30T19:42:26.295Z,100052.56
2023-11-30T19:44:58.393Z,100063.50
2023-11-30T19:47:30.553Z,100066.00
2023-11-30T19:50:03.465Z,100059.69
2023-11-30T19:52:39.171Z,100062.13
2023-11-30T19:55:11.624Z,100061.19
2023-11-30T19:57:43.647Z,100054.28
2023-11-30T20:00:16.310Z,100055.03
2023-11-30T20:02:48.762Z,100063.44
2023-11-30T20:05:22.796Z,100070.22
2023-11-30T20:07:54.903Z,100064.06
2023-11-30T20:10:27.122Z,100067.41
2023-11-30T20:12:59.346Z,100074.25
2023-11-30T20:15:31.727Z,100066.22
2023-11-30T20:18:05.293Z,100075.72
2023-11-30T20:20:37.983Z,100068.69
2023-11-30T20:23:10.150Z,100070.34
2023-11-30T20:25:42.374Z,100071.97
2023-11-30T20:28:14.413Z,100046.88
2023-11-30T20:30:46.487Z,100069.94
2023-11-30T20:33:18.638Z,100077.66
2023-11-30T20:35:50.724Z,100091.34
2023-11-30T20:38:23.892Z,100085.84
2023-11-30T20:40:55.902Z,100086.44
2023-11-30T20:43:27.942Z,100087.13
2023-11-30T20:46:00.034Z,100084.66
2023-11-30T20:48:32.091Z,100085.41
2023-11-30T20:51:04.667Z,100090.75
2023-11-30T20:53:36.746Z,100095.00
2023-11-30T20:56:09.522Z,100106.34
2023-11-30T20:58:44.607Z,100101.91
2023-11-30T21:01:18.494Z,100102.66
2023-11-30T21:03:50.868Z,100105.16
2023-11-30T21:06:23.846Z,100095.66
2023-11-30T21:08:55.890Z,100099.34
2023-11-30T21:11:27.999Z,100100.34
2023-11-30T21:14:00.074Z,100104.69
2023-11-30T21:16:32.466Z,100097.78
2023-11-30T21:19:04.690Z,100098.78
2023-11-30T21:21:36.801Z,100099.50
2023-11-30T21:24:09.125Z,100099.50
2023-11-30T21:26:41.199Z,100103.88
2023-11-30T21:29:13.325Z,100104.69
2023-11-30T21:31:45.536Z,100101.28
2023-11-30T21:34:17.791Z,100102.28
2023-11-30T21:36:49.819Z,100103.22
2023-11-30T21:39:21.922Z,100100.72
2023-11-30T21:41:54.477Z,100098.03
2023-11-30T21:44:27.962Z,100106.94
2023-11-30T21:47:00.060Z,100081.03
2023-11-30T21:49:32.106Z,100113.00
2023-11-30T21:52:04.620Z,100110.50
2023-11-30T21:54:36.702Z,100112.13
2023-11-30T21:57:08.732Z,100110.41
2023-11-30T21:59:40.821Z,100080.09
2023-11-30T22:02:13.159Z,100080.09
2023-11-30T22:04:45.381Z,100114.88
2023-11-30T22:07:17.678Z,100115.91
2023-11-30T22:09:49.674Z,100105.28
2023-11-30T22:12:21.704Z,100083.63
2023-11-30T22:14:53.737Z,100120.13
2023-11-30T22:17:25.733Z,100120.94
2023-11-30T22:19:58.271Z,100116.34
2023-11-30T22:22:30.302Z,100101.81
2023-11-30T22:25:02.949Z,100127.56
2023-11-30T22:27:35.055Z,100125.81
2023-11-30T22:30:08.417Z,100130.84
2023-11-30T22:32:40.561Z,100129.81
2023-11-30T22:35:12.689Z,100128.97
2023-11-30T22:37:44.889Z,100128.91
2023-11-30T22:40:17.225Z,100097.97
2023-11-30T22:42:49.321Z,100082.06
2023-11-30T22:45:21.356Z,100109.75
2023-11-30T22:47:53.645Z,100112.28
2023-11-30T22:50:25.743Z,100107.84
2023-11-30T22:52:57.999Z,100117.25
2023-11-30T22:55:30.202Z,100119.72
2023-11-30T22:58:03.099Z,100096.28
2023-11-30T23:00:35.729Z,100138.66
2023-11-30T23:03:08.035Z,100137.81
2023-11-30T23:05:40.333Z,100143.00
2023-11-30T23:08:14.523Z,100142.13
2023-11-30T23:10:46.531Z,100113.59
2023-11-30T23:13:18.954Z,100138.69
2023-11-30T23:15:51.119Z,100118.00
2023-11-30T23:18:23.941Z,100142.28
2023-11-30T23:20:56.266Z,100145.69
2023-11-30T23:23:28.415Z,100139.44
2023-11-30T23:26:01.060Z,100127.72
2023-11-30T23:28:33.087Z,100159.63
2023-11-30T23:31:05.486Z,100157.88
2023-11-30T23:33:37.998Z,100165.66
2023-11-30T23:36:11.215Z,100165.56
2023-11-30T23:38:43.448Z,100157.53
2023-11-30T23:41:15.605Z,100156.69
2023-11-30T23:43:47.620Z,100154.13
2023-11-30T23:46:19.670Z,100157.78
2023-11-30T23:48:51.789Z,100152.19
2023-11-30T23:51:24.627Z,100160.97
2023-11-30T23:53:56.696Z,100162.44
2023-11-30T23:56:28.864Z,100165.88
2023-11-30T23:59:00.969Z,100160.84
